Terminal Aerodrome Forecast
Issued by NWS

Home | Current Version | Previous Version | Text Only | Print | Product List | Glossary On
Versions: 1 2 3 4 5 6 7 8 9 10 11 12 13 14 15 16 17 18 19 20 21 22 23 24 25 26
000
FTUS41 KOKX 282000 AAA
TAFTEB
TAF AMD
KTEB 282009Z 2820/0118 VRB03KT P6SM SCT250
     FM010800 00000KT P6SM BKN100
     FM011100 00000KT P6SM OVC070
     FM011400 00000KT 4SM -SN SCT025 OVC040
     FM011600 18004KT 2SM -SN OVC015=

USA.gov is the U.S. government's official web portal to all federal, state and local government web resources and services.